Time;durP1;ratioP1;P1;durP2;ratioP2;P2;SDS_P1;SDS_P2;PMS_P1;PMS_P2;Temp;Humidity;BMP_temperature;BMP_pressure;BME280_temperature;BME280_humidity;BME280_pressure;Samples;Min_cycle;Max_cycle;Signal;HPM_P1;HPM_P2
2022/06/26 00:01:00;;;;;;;;;;;;;;;22.65;87.71;98183.53;4818267;29;19960;-72
2022/06/26 00:03:27;;;;;;;;;;;;;;;22.60;86.64;98199.19;4829745;29;19968;-72
2022/06/26 00:05:55;;;;;;;;;;;;;;;22.58;85.07;98195.25;4829097;29;19959;-72
2022/06/26 00:08:23;;;;;;;;;;;;;;;22.62;83.35;98201.63;4814222;29;19950;-72
2022/06/26 00:10:51;;;;;;;;;;;;;;;22.61;85.63;98200.00;4830244;29;19948;-72
2022/06/26 00:13:19;;;;;;;;;;;;;;;22.55;83.76;98197.00;4829506;29;19955;-72
2022/06/26 00:15:46;;;;;;;;;;;;;;;22.54;83.14;98211.75;4821216;29;19980;-72
2022/06/26 00:18:14;;;;;;;;;;;;;;;22.50;85.12;98208.25;4829239;29;19980;-72
2022/06/26 00:20:41;;;;;;;;;;;;;;;22.46;83.79;98211.28;4828865;29;19948;-72
2022/06/26 00:23:09;;;;;;;;;;;;;;;22.41;84.93;98209.09;4830027;29;20350;-72
2022/06/26 00:25:36;;;;;;;;;;;;;;;22.32;86.29;98211.97;4830161;29;19942;-73
2022/06/26 00:28:04;;;;;;;;;;;;;;;22.18;87.77;98198.38;4829465;29;19951;-72
2022/06/26 00:30:31;;;;;;;;;;;;;;;22.05;90.28;98212.84;4829996;29;19954;-72
2022/06/26 00:32:59;;;;;;;;;;;;;;;21.85;93.43;98208.88;4829014;29;19951;-72
2022/06/26 00:35:26;;;;;;;;;;;;;;;21.69;94.41;98209.19;4816427;29;19949;-72
2022/06/26 00:37:53;;;;;;;;;;;;;;;21.55;95.57;98204.91;4813389;29;19956;-72
2022/06/26 00:40:21;;;;;;;;;;;;;;;21.41;96.86;98205.53;4813655;29;20021;-72
2022/06/26 00:42:48;;;;;;;;;;;;;;;21.28;98.45;98214.22;4829236;29;19972;-72
2022/06/26 00:45:16;;;;;;;;;;;;;;;21.19;100.00;98205.66;4829836;29;19947;-72
2022/06/26 00:47:43;;;;;;;;;;;;;;;21.07;100.00;98215.13;4829131;29;19965;-72
2022/06/26 00:50:10;;;;;;;;;;;;;;;20.94;100.00;98215.22;4812810;29;19950;-72
2022/06/26 00:52:39;;;;;;;;;;;;;;;20.85;100.00;98208.72;4828844;29;19976;-72
2022/06/26 00:55:07;;;;;;;;;;;;;;;20.77;100.00;98205.38;4828594;29;19948;-72
2022/06/26 00:57:34;;;;;;;;;;;;;;;20.75;100.00;98210.75;4827439;29;20245;-72
2022/06/26 01:00:03;;;;;;;;;;;;;;;20.68;100.00;98208.19;4828847;29;20034;-72
2022/06/26 01:02:30;;;;;;;;;;;;;;;20.66;100.00;98207.84;4828586;29;19948;-72
2022/06/26 01:04:58;;;;;;;;;;;;;;;20.66;100.00;98218.44;4828270;29;19958;-72
2022/06/26 01:07:25;;;;;;;;;;;;;;;20.59;100.00;98213.81;4811097;29;19957;-72
2022/06/26 01:09:53;;;;;;;;;;;;;;;20.57;100.00;98215.53;4829291;29;20176;-72
2022/06/26 01:12:20;;;;;;;;;;;;;;;20.56;100.00;98211.94;4828411;29;20274;-72
2022/06/26 01:14:48;;;;;;;;;;;;;;;20.55;100.00;98215.22;4812703;29;19949;-72
2022/06/26 01:17:17;;;;;;;;;;;;;;;20.55;100.00;98210.34;4812820;29;19982;-72
2022/06/26 01:19:45;;;;;;;;;;;;;;;20.49;100.00;98214.25;4813065;29;19962;-72
2022/06/26 01:22:12;;;;;;;;;;;;;;;20.50;100.00;98210.94;4813084;29;19948;-72
2022/06/26 01:24:40;;;;;;;;;;;;;;;20.49;100.00;98205.75;4828221;29;19973;-72
2022/06/26 01:27:07;;;;;;;;;;;;;;;20.54;100.00;98205.13;4827027;29;20236;-72
2022/06/26 01:29:34;;;;;;;;;;;;;;;20.52;100.00;98201.94;4812487;29;20234;-72
2022/06/26 01:32:02;;;;;;;;;;;;;;;20.55;100.00;98198.97;4815234;29;19950;-72
2022/06/26 01:34:31;;;;;;;;;;;;;;;20.55;100.00;98195.34;4812085;29;19955;-72
2022/06/26 01:37:02;;;;;;;;;;;;;;;20.62;100.00;98195.84;4812170;29;19951;-72
2022/06/26 01:39:30;;;;;;;;;;;;;;;20.62;100.00;98198.69;4798175;29;19949;-72
2022/06/26 01:41:57;;;;;;;;;;;;;;;20.68;100.00;98196.03;4827847;29;19954;-72
2022/06/26 01:44:25;;;;;;;;;;;;;;;20.76;100.00;98191.66;4812443;29;19970;-72
2022/06/26 01:46:54;;;;;;;;;;;;;;;20.82;100.00;98190.56;4794413;29;19958;-72
2022/06/26 01:49:23;;;;;;;;;;;;;;;20.87;100.00;98186.28;4818352;29;20355;-72
2022/06/26 01:51:52;;;;;;;;;;;;;;;20.91;100.00;98195.47;4812091;29;19965;-72
2022/06/26 01:54:20;;;;;;;;;;;;;;;20.90;98.84;98194.69;4812000;29;19949;-72
2022/06/26 01:56:48;;;;;;;;;;;;;;;20.99;95.70;98196.75;4799419;29;19955;-72
2022/06/26 01:59:16;;;;;;;;;;;;;;;21.08;93.18;98199.63;4799157;29;19959;-72
2022/06/26 02:01:46;;;;;;;;;;;;;;;21.11;93.77;98198.69;4811790;29;19956;-72
2022/06/26 02:04:16;;;;;;;;;;;;;;;21.02;100.00;98192.97;4812153;29;19982;-72
2022/06/26 02:06:44;;;;;;;;;;;;;;;20.96;100.00;98189.94;4810943;29;19954;-72
2022/06/26 02:14:52;;;;;;;;;;;;;;;20.59;100.00;98191.09;4817068;29;20107;-72
2022/06/26 02:17:19;;;;;;;;;;;;;;;20.53;100.00;98195.81;4827908;29;20754;-72
2022/06/26 02:19:46;;;;;;;;;;;;;;;20.49;100.00;98200.06;4828277;29;19955;-72
2022/06/26 02:22:13;;;;;;;;;;;;;;;20.43;100.00;98197.03;4811441;29;19957;-72
2022/06/26 02:24:44;;;;;;;;;;;;;;;20.42;100.00;98198.28;4811181;29;19966;-72
2022/06/26 02:27:11;;;;;;;;;;;;;;;20.38;100.00;98202.50;4811304;29;19957;-72
2022/06/26 02:29:39;;;;;;;;;;;;;;;20.40;100.00;98206.47;4811909;29;19954;-72
2022/06/26 02:32:07;;;;;;;;;;;;;;;20.38;100.00;98199.69;4826885;29;19956;-72
2022/06/26 02:34:34;;;;;;;;;;;;;;;20.29;100.00;98200.44;4824610;29;20251;-72
2022/06/26 02:37:01;;;;;;;;;;;;;;;20.24;100.00;98199.00;4823667;29;19950;-72
2022/06/26 02:39:29;;;;;;;;;;;;;;;20.23;100.00;98203.06;4814640;29;19955;-72
2022/06/26 02:41:56;;;;;;;;;;;;;;;20.25;100.00;98200.56;4820355;29;19948;-72
2022/06/26 02:44:26;;;;;;;;;;;;;;;20.36;99.59;98211.50;4810705;29;19970;-72
2022/06/26 02:46:55;;;;;;;;;;;;;;;20.47;97.38;98211.09;4811458;29;19955;-72
2022/06/26 02:49:22;;;;;;;;;;;;;;;20.55;96.01;98212.38;4839664;29;19955;-72
2022/06/26 02:51:49;;;;;;;;;;;;;;;20.57;96.22;98212.69;4811207;29;19950;-72
2022/06/26 02:54:17;;;;;;;;;;;;;;;20.56;95.70;98214.78;4811265;29;19959;-72
2022/06/26 02:56:44;;;;;;;;;;;;;;;20.58;96.59;98211.44;4810300;29;19955;-72
2022/06/26 02:59:13;;;;;;;;;;;;;;;20.58;95.71;98211.44;4810882;29;19955;-72
2022/06/26 03:01:41;;;;;;;;;;;;;;;20.46;96.13;98215.19;4810890;29;19951;-72
2022/06/26 03:04:28;;;;;;;;;;;;;;;20.32;99.67;98216.53;4826370;29;19970;-72
2022/06/26 03:06:57;;;;;;;;;;;;;;;20.22;100.00;98218.53;4811107;29;19955;-72
2022/06/26 03:09:25;;;;;;;;;;;;;;;20.12;99.86;98221.75;4810788;29;20334;-72
2022/06/26 03:11:52;;;;;;;;;;;;;;;20.09;99.78;98214.97;4810803;29;19957;-72
2022/06/26 03:14:20;;;;;;;;;;;;;;;20.08;100.00;98223.91;4811493;29;19945;-72
2022/06/26 03:16:50;;;;;;;;;;;;;;;20.04;100.00;98224.06;4811005;29;19973;-72
2022/06/26 03:19:17;;;;;;;;;;;;;;;19.97;100.00;98218.66;4826690;29;20361;-72
2022/06/26 03:21:44;;;;;;;;;;;;;;;19.94;100.00;98225.25;4830030;29;19950;-72
2022/06/26 03:24:13;;;;;;;;;;;;;;;19.94;100.00;98225.25;4815010;29;19974;-72
2022/06/26 03:26:41;;;;;;;;;;;;;;;19.96;100.00;98221.94;4814426;29;19948;-72
2022/06/26 03:29:09;;;;;;;;;;;;;;;19.94;100.00;98222.41;4814274;29;19961;-72
2022/06/26 03:31:38;;;;;;;;;;;;;;;19.98;100.00;98222.28;4814310;29;19952;-72
2022/06/26 03:34:08;;;;;;;;;;;;;;;19.97;100.00;98224.34;4814081;29;19963;-72
2022/06/26 03:36:43;;;;;;;;;;;;;;;19.96;100.00;98231.25;4829343;29;19982;-72
2022/06/26 03:39:10;;;;;;;;;;;;;;;19.96;100.00;98234.09;4814532;29;19949;-72
2022/06/26 03:41:38;;;;;;;;;;;;;;;19.97;100.00;98229.22;4813996;29;20205;-72
2022/06/26 03:44:07;;;;;;;;;;;;;;;19.96;100.00;98233.31;4814368;29;19970;-72
2022/06/26 03:46:34;;;;;;;;;;;;;;;20.01;100.00;98236.34;4830833;29;20359;-72
2022/06/26 03:49:03;;;;;;;;;;;;;;;20.05;100.00;98241.91;4830094;29;19952;-72
2022/06/26 03:51:32;;;;;;;;;;;;;;;20.09;100.00;98240.50;4813694;29;19950;-72
2022/06/26 03:54:00;;;;;;;;;;;;;;;20.17;100.00;98236.13;4814573;29;19949;-73
2022/06/26 03:56:28;;;;;;;;;;;;;;;20.28;100.00;98247.13;4813507;29;20032;-72
2022/06/26 03:58:55;;;;;;;;;;;;;;;20.39;100.00;98239.00;4813972;29;19949;-72
2022/06/26 04:01:22;;;;;;;;;;;;;;;20.51;100.00;98251.50;4830093;29;19949;-72
2022/06/26 04:03:53;;;;;;;;;;;;;;;20.63;99.95;98254.25;4813328;29;19949;-72
2022/06/26 04:06:20;;;;;;;;;;;;;;;20.76;98.68;98259.84;4814350;29;19950;-72
2022/06/26 04:08:47;;;;;;;;;;;;;;;20.96;95.74;98263.88;4813801;29;19953;-72
2022/06/26 04:11:15;;;;;;;;;;;;;;;21.22;96.26;98273.00;4813741;29;19960;-72
2022/06/26 04:13:49;;;;;;;;;;;;;;;21.39;90.74;98270.66;4813660;29;19978;-72
2022/06/26 04:16:17;;;;;;;;;;;;;;;21.47;93.48;98275.56;4826116;29;19982;-72
2022/06/26 04:18:47;;;;;;;;;;;;;;;21.57;92.32;98276.34;4814173;29;19947;-73
2022/06/26 04:21:14;;;;;;;;;;;;;;;21.67;90.14;98277.16;4813575;29;19960;-72
2022/06/26 04:23:42;;;;;;;;;;;;;;;21.73;94.85;98283.81;4816556;29;20206;-72
2022/06/26 04:26:16;;;;;;;;;;;;;;;21.87;94.26;98283.22;4814017;29;20248;-72
2022/06/26 04:28:44;;;;;;;;;;;;;;;;;;4800828;29;20369;-72
2022/06/26 04:31:11;;;;;;;;;;;;;;;22.05;93.17;98284.03;4812611;29;19950;-72
2022/06/26 04:33:39;;;;;;;;;;;;;;;22.19;94.16;98291.13;4813106;29;19959;-72
2022/06/26 04:36:07;;;;;;;;;;;;;;;22.31;92.58;98292.22;4813301;29;19948;-72
2022/06/26 04:38:37;;;;;;;;;;;;;;;22.35;93.72;98290.78;4813468;29;19952;-72
2022/06/26 04:41:31;;;;;;;;;;;;;;;22.42;93.67;98289.69;4813681;29;19955;-72
2022/06/26 04:43:51;;;;;;;;;;;;;;;22.66;94.13;98287.75;4813111;29;19950;-72
2022/06/26 04:46:19;;;;;;;;;;;;;;;22.88;94.82;98289.09;4812980;29;19961;-72
2022/06/26 04:48:46;;;;;;;;;;;;;;;22.92;95.37;98291.75;4812793;29;19956;-72
2022/06/26 04:51:16;;;;;;;;;;;;;;;23.26;92.55;98291.28;4812685;29;19953;-73
2022/06/26 04:53:44;;;;;;;;;;;;;;;23.41;91.94;98302.81;4813200;29;19950;-73
2022/06/26 04:56:12;;;;;;;;;;;;;;;23.79;92.00;98308.63;4796980;29;19956;-73
2022/06/26 04:58:46;;;;;;;;;;;;;;;24.19;87.85;98305.28;4804844;29;19964;-72
2022/06/26 05:01:14;;;;;;;;;;;;;;;24.46;83.77;98313.63;4828490;29;19951;-72
2022/06/26 05:03:58;;;;;;;;;;;;;;;24.71;86.58;98321.63;4813188;29;19947;-72
2022/06/26 05:06:43;;;;;;;;;;;;;;;24.93;79.93;98311.88;4825985;29;19953;-72
2022/06/26 05:09:22;;;;;;;;;;;;;;;24.89;82.17;98334.19;4827791;29;19947;-72
2022/06/26 05:11:50;;;;;;;;;;;;;;;25.14;83.35;98317.19;4812868;29;19960;-73
2022/06/26 05:14:18;;;;;;;;;;;;;;;25.32;79.11;98322.69;4812440;29;20008;-73
2022/06/26 05:16:57;;;;;;;;;;;;;;;25.44;75.34;98324.47;4813214;29;19969;-73
2022/06/26 05:19:27;;;;;;;;;;;;;;;25.67;78.92;98324.78;4812833;29;19952;-72
2022/06/26 05:21:56;;;;;;;;;;;;;;;25.80;73.64;98328.13;4812760;29;19960;-73
2022/06/26 05:24:23;;;;;;;;;;;;;;;25.83;71.35;98335.69;4828148;29;20625;-72
2022/06/26 05:26:50;;;;;;;;;;;;;;;26.06;72.06;98335.50;4812638;29;19955;-72
2022/06/26 05:29:17;;;;;;;;;;;;;;;26.10;71.10;98330.31;4812242;29;19949;-72
2022/06/26 05:31:45;;;;;;;;;;;;;;;26.33;71.06;98340.03;4812710;29;19958;-73
2022/06/26 05:34:12;;;;;;;;;;;;;;;26.26;70.04;98339.66;4815159;29;19947;-73
2022/06/26 05:36:42;;;;;;;;;;;;;;;26.47;70.47;98341.22;4811900;29;19949;-73
2022/06/26 05:39:10;;;;;;;;;;;;;;;26.71;69.06;98339.66;4796191;29;19957;-73
2022/06/26 05:41:39;;;;;;;;;;;;;;;26.74;71.13;98338.66;4803159;29;19955;-72
2022/06/26 05:44:06;;;;;;;;;;;;;;;26.90;70.46;98345.09;4811561;29;19949;-72
2022/06/26 05:46:34;;;;;;;;;;;;;;;26.98;69.50;98346.97;4828950;29;19970;-73
2022/06/26 05:49:04;;;;;;;;;;;;;;;27.04;69.78;98344.16;4827898;29;19952;-73
2022/06/26 05:52:09;;;;;;;;;;;;;;;27.35;69.37;98359.31;4827655;29;19948;-72
2022/06/26 05:55:09;;;;;;;;;;;;;;;27.44;70.09;98364.09;4789324;29;19964;-73
2022/06/26 05:58:08;;;;;;;;;;;;;;;27.36;69.75;98362.97;4773985;29;19953;-72
2022/06/26 06:00:55;;;;;;;;;;;;;;;27.47;70.68;98368.84;4827818;29;19957;-72
2022/06/26 06:03:22;;;;;;;;;;;;;;;27.25;72.88;98369.41;4812110;29;19953;-73
2022/06/26 06:05:54;;;;;;;;;;;;;;;26.76;76.24;98369.72;4812323;29;20231;-73
2022/06/26 06:08:22;;;;;;;;;;;;;;;26.41;80.34;98361.22;4815047;29;19950;-72
2022/06/26 06:10:49;;;;;;;;;;;;;;;26.09;81.71;98359.50;4811649;29;19961;-72
2022/06/26 06:13:17;;;;;;;;;;;;;;;26.25;81.96;98367.53;4812049;29;19949;-72
2022/06/26 06:15:44;;;;;;;;;;;;;;;26.54;79.36;98370.25;4811858;29;19956;-73
2022/06/26 06:18:12;;;;;;;;;;;;;;;26.65;78.14;98373.22;4811575;29;20374;-73
2022/06/26 06:20:41;;;;;;;;;;;;;;;26.86;77.99;98370.34;4811379;29;19953;-73
2022/06/26 06:23:19;;;;;;;;;;;;;;;26.72;77.89;98360.53;4811666;29;19966;-72
2022/06/26 06:25:47;;;;;;;;;;;;;;;26.92;78.38;98372.00;4811741;29;19972;-72
2022/06/26 06:28:14;;;;;;;;;;;;;;;26.94;79.89;98374.34;4795085;29;19957;-72
2022/06/26 06:30:43;;;;;;;;;;;;;;;26.93;80.94;98372.75;4827545;29;19953;-73
2022/06/26 06:33:16;;;;;;;;;;;;;;;27.10;80.83;98379.44;4810452;29;19953;-72
2022/06/26 06:35:45;;;;;;;;;;;;;;;27.21;81.44;98376.69;4811273;29;19952;-72
2022/06/26 06:38:12;;;;;;;;;;;;;;;27.22;81.18;98376.16;4826609;29;19950;-73
2022/06/26 06:40:47;;;;;;;;;;;;;;;27.45;84.74;98371.44;4824421;29;19954;-73
2022/06/26 06:43:23;;;;;;;;;;;;;;;27.56;87.25;98376.50;4830152;29;19952;-73
2022/06/26 06:46:09;;;;;;;;;;;;;;;27.47;82.92;98380.31;4827975;29;20376;-73
2022/06/26 06:48:41;;;;;;;;;;;;;;;27.38;81.59;98380.53;4811050;29;19956;-73
2022/06/26 06:51:24;;;;;;;;;;;;;;;27.46;85.21;98386.59;4811089;29;19961;-72
2022/06/26 06:53:51;;;;;;;;;;;;;;;27.51;84.60;98380.09;4826823;29;19954;-73
2022/06/26 06:56:19;;;;;;;;;;;;;;;27.46;84.68;98387.38;4826900;29;19951;-72
2022/06/26 06:58:46;;;;;;;;;;;;;;;27.57;84.78;98393.19;4827647;29;19989;-73
2022/06/26 07:01:13;;;;;;;;;;;;;;;27.61;84.58;98396.63;4810658;29;19952;-73
2022/06/26 07:03:41;;;;;;;;;;;;;;;27.81;83.59;98399.38;4811253;29;19981;-73
2022/06/26 07:06:08;;;;;;;;;;;;;;;27.73;87.27;98403.25;4811164;29;19989;-73
2022/06/26 07:08:35;;;;;;;;;;;;;;;27.67;80.87;98406.06;4827094;29;19957;-73
2022/06/26 07:11:02;;;;;;;;;;;;;;;27.56;82.72;98408.84;4826787;29;19980;-73
2022/06/26 07:13:30;;;;;;;;;;;;;;;27.67;87.24;98411.03;4811273;29;19948;-73
2022/06/26 07:15:57;;;;;;;;;;;;;;;27.62;91.10;98403.94;4811329;29;19952;-73
2022/06/26 07:18:25;;;;;;;;;;;;;;;27.67;91.88;98416.78;4810959;29;19955;-73
2022/06/26 07:20:54;;;;;;;;;;;;;;;27.91;85.41;98415.13;4811231;29;19958;-73
2022/06/26 07:23:22;;;;;;;;;;;;;;;27.84;82.23;98418.47;4810303;29;19959;-72
2022/06/26 07:25:56;;;;;;;;;;;;;;;27.68;80.52;98413.38;4810292;29;20290;-73
2022/06/26 07:28:29;;;;;;;;;;;;;;;27.69;82.33;98414.19;4810834;29;19950;-73
2022/06/26 07:30:57;;;;;;;;;;;;;;;27.78;85.82;98414.00;4826868;29;20212;-73
2022/06/26 07:36:12;;;;;;;;;;;;;;;27.86;86.04;98410.13;4797810;29;19967;-73
2022/06/26 07:38:40;;;;;;;;;;;;;;;27.82;88.88;98408.78;4809905;29;19948;-73
2022/06/26 07:41:08;;;;;;;;;;;;;;;28.07;92.59;98401.41;4823407;29;19957;-73
2022/06/26 07:43:35;;;;;;;;;;;;;;;28.08;81.39;98400.88;4810992;29;19956;-73
2022/06/26 07:46:03;;;;;;;;;;;;;;;28.07;85.31;98399.31;4810877;29;19968;-73
2022/06/26 07:48:33;;;;;;;;;;;;;;;28.11;86.91;98401.94;4810235;29;19951;-73
2022/06/26 07:51:02;;;;;;;;;;;;;;;27.87;74.59;98399.41;4825728;29;19949;-73
2022/06/26 07:53:29;;;;;;;;;;;;;;;28.02;80.95;98405.81;4827175;29;19953;-73
2022/06/26 07:55:56;;;;;;;;;;;;;;;28.13;84.97;98403.00;4826323;29;19948;-73
2022/06/26 07:58:23;;;;;;;;;;;;;;;28.14;82.02;98407.47;4826169;29;19953;-73
2022/06/26 08:00:51;;;;;;;;;;;;;;;28.25;80.04;98407.50;4825916;29;19947;-73
2022/06/26 08:03:18;;;;;;;;;;;;;;;28.27;81.63;98404.13;4826314;29;19956;-73
2022/06/26 08:05:46;;;;;;;;;;;;;;;28.27;82.72;98398.38;4826519;29;19976;-73
2022/06/26 08:08:14;;;;;;;;;;;;;;;28.26;76.85;98393.91;4829199;29;19954;-73
2022/06/26 08:10:41;;;;;;;;;;;;;;;28.48;76.00;98397.69;4830291;29;19957;-73
2022/06/26 08:13:08;;;;;;;;;;;;;;;28.42;80.73;98398.94;4829412;29;19959;-73
2022/06/26 08:15:36;;;;;;;;;;;;;;;28.45;80.80;98398.72;4829908;29;19954;-73
2022/06/26 08:18:03;;;;;;;;;;;;;;;28.47;71.97;98396.09;4829303;29;19976;-73
2022/06/26 08:20:31;;;;;;;;;;;;;;;28.48;77.38;98394.81;4829130;29;19949;-73
2022/06/26 08:22:58;;;;;;;;;;;;;;;28.51;75.17;98395.88;4829439;29;19948;-73
2022/06/26 08:25:25;;;;;;;;;;;;;;;28.55;78.34;98399.28;4830035;29;19952;-72
2022/06/26 08:27:52;;;;;;;;;;;;;;;28.47;77.10;98396.09;4829623;29;19950;-73
2022/06/26 08:30:20;;;;;;;;;;;;;;;28.74;76.38;98402.50;4828825;29;19961;-73
2022/06/26 08:32:48;;;;;;;;;;;;;;;28.65;79.90;98394.91;4828898;29;19950;-73
2022/06/26 08:35:15;;;;;;;;;;;;;;;28.61;75.66;98411.63;4829347;29;20347;-73
2022/06/26 08:37:42;;;;;;;;;;;;;;;28.73;77.63;98409.56;4829064;29;19945;-73
2022/06/26 08:40:10;;;;;;;;;;;;;;;28.83;76.70;98403.03;4839818;29;19947;-73
2022/06/26 08:42:39;;;;;;;;;;;;;;;28.83;76.00;98408.03;4814928;29;19956;-73
2022/06/26 08:45:06;;;;;;;;;;;;;;;28.67;76.19;98400.13;4828768;29;19950;-73
2022/06/26 08:47:36;;;;;;;;;;;;;;;28.62;73.42;98405.34;4828629;29;19974;-73
2022/06/26 08:50:04;;;;;;;;;;;;;;;28.83;75.39;98396.53;4828672;29;20401;-73
2022/06/26 08:52:32;;;;;;;;;;;;;;;28.43;66.89;98400.53;4829763;29;19952;-73
2022/06/26 08:55:00;;;;;;;;;;;;;;;28.61;68.46;98394.38;4829702;29;20349;-73
2022/06/26 08:57:28;;;;;;;;;;;;;;;28.49;70.95;98402.13;4828275;29;19954;-72
2022/06/26 08:59:55;;;;;;;;;;;;;;;28.15;69.69;98403.25;4828854;29;19950;-72
2022/06/26 09:02:22;;;;;;;;;;;;;;;27.93;76.06;98398.16;4828759;29;19950;-73
2022/06/26 09:04:49;;;;;;;;;;;;;;;28.14;71.52;98404.59;4828399;29;20250;-73
2022/06/26 09:07:18;;;;;;;;;;;;;;;28.23;73.11;98392.84;4828980;29;19973;-73
2022/06/26 09:09:45;;;;;;;;;;;;;;;28.22;69.46;98390.50;4828099;29;19945;-73
2022/06/26 09:12:12;;;;;;;;;;;;;;;28.30;74.45;98388.69;4837294;29;19953;-73
2022/06/26 09:14:40;;;;;;;;;;;;;;;28.31;75.06;98384.53;4833124;29;19981;-73
2022/06/26 09:17:07;;;;;;;;;;;;;;;28.30;74.08;98374.31;4826856;29;19967;-73
2022/06/26 09:19:36;;;;;;;;;;;;;;;28.43;74.83;98378.31;4827674;29;19959;-73
2022/06/26 09:22:07;;;;;;;;;;;;;;;28.67;74.63;98382.84;4828405;29;19965;-72
2022/06/26 09:24:36;;;;;;;;;;;;;;;28.43;69.93;98383.28;4829068;29;20223;-72
2022/06/26 09:27:10;;;;;;;;;;;;;;;28.41;66.83;98383.81;4828199;29;20281;-72
2022/06/26 09:29:39;;;;;;;;;;;;;;;28.60;69.17;98381.28;4828323;29;19957;-72
2022/06/26 09:32:10;;;;;;;;;;;;;;;28.75;76.18;98384.72;4840929;29;19954;-73
2022/06/26 09:34:41;;;;;;;;;;;;;;;28.68;71.70;98378.69;4828284;29;19956;-72
2022/06/26 09:37:10;;;;;;;;;;;;;;;28.80;72.62;98383.97;4828562;29;20025;-72
2022/06/26 09:39:37;;;;;;;;;;;;;;;28.67;73.12;98389.41;4834666;29;19948;-72
2022/06/26 09:42:18;;;;;;;;;;;;;;;28.79;70.04;98390.22;4830814;29;19955;-72
2022/06/26 09:44:52;;;;;;;;;;;;;;;28.82;63.04;98387.09;4817118;29;21627;-72
2022/06/26 09:47:23;;;;;;;;;;;;;;;28.77;67.12;98384.19;4827376;29;19961;-73
2022/06/26 09:49:52;;;;;;;;;;;;;;;28.79;63.86;98376.63;4828097;29;19955;-73
2022/06/26 09:52:23;;;;;;;;;;;;;;;28.83;62.82;98387.88;4827670;29;19962;-73
2022/06/26 09:54:50;;;;;;;;;;;;;;;28.77;69.36;98370.59;4810452;29;20374;-73
2022/06/26 09:57:20;;;;;;;;;;;;;;;28.19;66.64;98363.56;4809677;29;20250;-73
2022/06/26 09:59:47;;;;;;;;;;;;;;;28.48;70.86;98360.28;4814977;29;19959;-72
2022/06/26 10:07:49;;;;;;;;;;;;;;;28.82;73.92;98351.75;4827693;29;19976;-73
2022/06/26 10:10:20;;;;;;;;;;;;;;;28.50;69.52;98354.00;4827293;29;20227;-72
2022/06/26 10:12:52;;;;;;;;;;;;;;;28.52;72.49;98365.78;4840727;29;19956;-72
2022/06/26 10:15:20;;;;;;;;;;;;;;;28.60;72.70;98359.03;4846642;29;19965;-72
2022/06/26 10:17:51;;;;;;;;;;;;;;;28.53;69.66;98353.78;4829787;29;19971;-72
2022/06/26 10:20:19;;;;;;;;;;;;;;;28.84;71.78;98352.03;4827293;29;19965;-72
2022/06/26 10:22:46;;;;;;;;;;;;;;;28.91;75.50;98351.50;4827378;29;19952;-72
2022/06/26 10:25:23;;;;;;;;;;;;;;;28.95;74.07;98354.94;4828009;29;19952;-72
2022/06/26 10:27:50;;;;;;;;;;;;;;;28.92;78.17;98350.22;4828429;29;20329;-72
2022/06/26 10:30:19;;;;;;;;;;;;;;;28.76;70.23;98350.97;4827326;29;19957;-72
2022/06/26 10:33:04;;;;;;;;;;;;;;;28.84;69.09;98347.06;4827286;29;19967;-72
2022/06/26 10:35:36;;;;;;;;;;;;;;;28.83;67.43;98348.34;4811766;29;20370;-72
2022/06/26 10:38:16;;;;;;;;;;;;;;;28.91;71.30;98343.66;4827140;29;20333;-72
2022/06/26 10:43:41;;;;;;;;;;;;;;;29.13;73.03;98340.81;4827870;29;19962;-73
2022/06/26 10:46:10;;;;;;;;;;;;;;;29.36;73.34;98344.50;4828143;29;19943;-72
2022/06/26 10:48:48;;;;;;;;;;;;;;;29.46;73.42;98339.25;4827477;29;19975;-72
2022/06/26 10:51:23;;;;;;;;;;;;;;;29.47;79.80;98327.19;4827820;29;19947;-72
2022/06/26 10:53:50;;;;;;;;;;;;;;;29.18;71.17;98325.63;4826957;29;19951;-72
2022/06/26 10:56:17;;;;;;;;;;;;;;;29.15;70.58;98305.72;4827641;29;19954;-72
2022/06/26 10:58:48;;;;;;;;;;;;;;;29.22;74.66;98303.13;4827186;29;20335;-73
2022/06/26 11:01:17;;;;;;;;;;;;;;;29.02;66.58;98308.34;4826843;29;19960;-73
2022/06/26 11:03:45;;;;;;;;;;;;;;;29.10;76.54;98301.53;4827587;29;19955;-73
2022/06/26 11:06:14;;;;;;;;;;;;;;;29.01;69.60;98303.88;4822808;29;19960;-73
2022/06/26 11:08:46;;;;;;;;;;;;;;;29.00;70.92;98302.34;4820432;29;19967;-73
2022/06/26 11:11:27;;;;;;;;;;;;;;;29.18;71.70;98307.56;4825496;29;19957;-73
2022/06/26 11:13:56;;;;;;;;;;;;;;;29.09;70.10;98305.72;4826698;29;19963;-73
2022/06/26 11:16:33;;;;;;;;;;;;;;;29.29;70.48;98299.72;4826857;29;19970;-72
2022/06/26 11:19:03;;;;;;;;;;;;;;;29.33;71.99;98299.47;4826102;29;19948;-72
2022/06/26 11:21:30;;;;;;;;;;;;;;;29.44;70.30;98299.47;4824980;29;19960;-73
2022/06/26 11:23:58;;;;;;;;;;;;;;;29.53;69.54;98310.69;4825888;29;19948;-73
2022/06/26 11:26:29;;;;;;;;;;;;;;;29.54;69.25;98305.72;4827256;29;20254;-72
2022/06/26 11:28:58;;;;;;;;;;;;;;;29.60;74.73;98304.41;4827346;29;20254;-72
2022/06/26 11:31:30;;;;;;;;;;;;;;;29.45;71.02;98300.22;4826385;29;19950;-72
2022/06/26 11:34:12;;;;;;;;;;;;;;;29.49;73.78;98292.88;4810365;29;20237;-73
2022/06/26 11:36:52;;;;;;;;;;;;;;;29.60;71.67;98292.09;4827344;29;19953;-73
2022/06/26 11:39:24;;;;;;;;;;;;;;;29.60;72.23;98295.75;4832008;29;19950;-72
2022/06/26 11:41:51;;;;;;;;;;;;;;;29.39;69.79;98285.84;4836087;29;19950;-73
2022/06/26 11:44:18;;;;;;;;;;;;;;;29.27;65.73;98279.28;4833701;29;19957;-72
2022/06/26 11:46:45;;;;;;;;;;;;;;;29.36;69.78;98286.09;4839155;29;20337;-73
2022/06/26 11:49:13;;;;;;;;;;;;;;;29.48;74.89;98282.69;4829902;29;20298;-73
2022/06/26 11:51:40;;;;;;;;;;;;;;;29.41;68.81;98285.31;4830154;29;20356;-73
2022/06/26 11:54:08;;;;;;;;;;;;;;;29.33;73.50;98279.28;4829579;29;19949;-72
2022/06/26 11:56:36;;;;;;;;;;;;;;;29.57;79.06;98270.88;4830339;29;19949;-73
2022/06/26 11:59:03;;;;;;;;;;;;;;;29.68;72.65;98270.84;4830536;29;19949;-73
2022/06/26 12:01:34;;;;;;;;;;;;;;;29.77;71.79;98273.47;4829482;29;19953;-72
2022/06/26 12:04:03;;;;;;;;;;;;;;;29.71;77.71;98269.78;4814635;29;19952;-72
2022/06/26 12:06:37;;;;;;;;;;;;;;;29.92;74.61;98276.03;4843112;29;19957;-72
2022/06/26 12:09:20;;;;;;;;;;;;;;;29.97;84.58;98269.47;4829436;29;19965;-73
2022/06/26 12:11:49;;;;;;;;;;;;;;;29.86;73.15;98272.38;4829750;29;20373;-72
2022/06/26 12:14:18;;;;;;;;;;;;;;;29.78;74.26;98277.94;4829584;29;19958;-72
2022/06/26 12:16:49;;;;;;;;;;;;;;;30.01;64.64;98277.81;4829138;29;19976;-72
2022/06/26 12:19:17;;;;;;;;;;;;;;;29.82;68.87;98275.53;4829376;29;19986;-72
2022/06/26 12:21:49;;;;;;;;;;;;;;;29.82;67.47;98269.00;4829119;29;19957;-72
2022/06/26 12:24:16;;;;;;;;;;;;;;;29.82;71.46;98266.09;4830133;29;19985;-72
2022/06/26 12:26:44;;;;;;;;;;;;;;;29.85;67.34;98265.06;4829278;29;19951;-72
2022/06/26 12:29:16;;;;;;;;;;;;;;;29.84;75.99;98266.34;4829815;29;19968;-72
2022/06/26 12:31:49;;;;;;;;;;;;;;;29.81;72.07;98268.19;4829431;29;19948;-72
2022/06/26 12:34:17;;;;;;;;;;;;;;;29.91;69.23;98257.94;4829139;29;19968;-72
2022/06/26 12:36:44;;;;;;;;;;;;;;;29.89;71.86;98249.03;4829038;29;19953;-72
2022/06/26 12:39:11;;;;;;;;;;;;;;;29.82;66.98;98254.56;4832473;29;20322;-72
2022/06/26 12:41:52;;;;;;;;;;;;;;;29.54;65.95;98250.97;4836899;29;19950;-72
2022/06/26 12:44:19;;;;;;;;;;;;;;;29.61;64.98;98251.22;4828862;29;19951;-72
2022/06/26 12:46:47;;;;;;;;;;;;;;;29.79;72.58;98238.34;4829002;29;20372;-72
2022/06/26 12:49:14;;;;;;;;;;;;;;;29.77;71.22;98238.09;4829162;29;19974;-72
2022/06/26 12:51:41;;;;;;;;;;;;;;;29.80;71.75;98242.78;4829182;29;19960;-73
2022/06/26 12:54:09;;;;;;;;;;;;;;;29.87;73.85;98233.59;4812521;29;19959;-72
2022/06/26 12:56:36;;;;;;;;;;;;;;;29.93;72.02;98245.91;4828568;29;19949;-73
2022/06/26 12:59:03;;;;;;;;;;;;;;;30.03;74.32;98247.13;4828395;29;19963;-73
2022/06/26 13:01:31;;;;;;;;;;;;;;;30.15;68.78;98237.09;4829218;29;20167;-73
2022/06/26 13:04:02;;;;;;;;;;;;;;;30.10;66.44;98240.84;4828836;29;19950;-73
2022/06/26 13:06:29;;;;;;;;;;;;;;;30.16;65.22;98232.91;4828914;29;20239;-73
2022/06/26 13:08:57;;;;;;;;;;;;;;;30.27;72.82;98235.75;4828543;29;20359;-73
2022/06/26 13:11:24;;;;;;;;;;;;;;;30.12;64.60;98235.31;4828309;29;20385;-72
2022/06/26 13:13:52;;;;;;;;;;;;;;;30.15;69.64;98234.22;4828774;29;19954;-73